sensor_id;sensor_type;location;lat;lon;timestamp;P1;durP1;ratioP1;P2;durP2;ratioP2
34876;SDS011;21086;44.780;17.194;2022-10-14T00:01:16;40.47;;;30.88;;
34876;SDS011;21086;44.780;17.194;2022-10-14T00:03:45;37.10;;;31.10;;
34876;SDS011;21086;44.780;17.194;2022-10-14T00:06:18;36.08;;;31.65;;
34876;SDS011;21086;44.780;17.194;2022-10-14T00:08:47;36.85;;;29.83;;
34876;SDS011;21086;44.780;17.194;2022-10-14T00:11:16;42.15;;;33.45;;
34876;SDS011;21086;44.780;17.194;2022-10-14T00:13:45;39.08;;;33.25;;
34876;SDS011;21086;44.780;17.194;2022-10-14T00:16:14;44.17;;;32.00;;
34876;SDS011;21086;44.780;17.194;2022-10-14T00:18:49;46.85;;;33.05;;
34876;SDS011;21086;44.780;17.194;2022-10-14T00:21:17;41.13;;;32.15;;
34876;SDS011;21086;44.780;17.194;2022-10-14T00:23:45;37.83;;;31.85;;
34876;SDS011;21086;44.780;17.194;2022-10-14T00:26:14;32.25;;;25.27;;
34876;SDS011;21086;44.780;17.194;2022-10-14T00:28:46;34.53;;;29.25;;
34876;SDS011;21086;44.780;17.194;2022-10-14T00:31:13;36.92;;;30.08;;
34876;SDS011;21086;44.780;17.194;2022-10-14T00:33:41;42.38;;;29.77;;
34876;SDS011;21086;44.780;17.194;2022-10-14T00:36:10;37.75;;;32.85;;
34876;SDS011;21086;44.780;17.194;2022-10-14T00:38:39;54.22;;;39.45;;
34876;SDS011;21086;44.780;17.194;2022-10-14T00:41:06;39.67;;;31.70;;
34876;SDS011;21086;44.780;17.194;2022-10-14T00:46:25;37.92;;;30.95;;
34876;SDS011;21086;44.780;17.194;2022-10-14T00:48:54;35.75;;;30.98;;
34876;SDS011;21086;44.780;17.194;2022-10-14T00:51:26;37.28;;;29.85;;
34876;SDS011;21086;44.780;17.194;2022-10-14T00:53:53;32.20;;;26.65;;
34876;SDS011;21086;44.780;17.194;2022-10-14T00:56:21;36.10;;;32.15;;
34876;SDS011;21086;44.780;17.194;2022-10-14T00:58:51;41.47;;;30.98;;
34876;SDS011;21086;44.780;17.194;2022-10-14T01:01:18;35.42;;;27.85;;
34876;SDS011;21086;44.780;17.194;2022-10-14T01:03:45;37.65;;;30.77;;
34876;SDS011;21086;44.780;17.194;2022-10-14T01:11:33;36.83;;;32.67;;
34876;SDS011;21086;44.780;17.194;2022-10-14T01:31:49;39.83;;;31.33;;
34876;SDS011;21086;44.780;17.194;2022-10-14T01:34:26;37.88;;;29.52;;
34876;SDS011;21086;44.780;17.194;2022-10-14T01:37:04;29.60;;;25.55;;
34876;SDS011;21086;44.780;17.194;2022-10-14T01:39:43;34.40;;;27.58;;
34876;SDS011;21086;44.780;17.194;2022-10-14T01:42:15;33.03;;;27.98;;
34876;SDS011;21086;44.780;17.194;2022-10-14T01:44:49;38.42;;;30.15;;
34876;SDS011;21086;44.780;17.194;2022-10-14T01:47:20;37.47;;;31.05;;
34876;SDS011;21086;44.780;17.194;2022-10-14T01:49:54;41.58;;;32.90;;
34876;SDS011;21086;44.780;17.194;2022-10-14T01:52:31;37.58;;;29.48;;
34876;SDS011;21086;44.780;17.194;2022-10-14T01:55:04;34.75;;;28.33;;
34876;SDS011;21086;44.780;17.194;2022-10-14T01:57:34;34.65;;;29.08;;
34876;SDS011;21086;44.780;17.194;2022-10-14T02:00:04;44.92;;;35.30;;
34876;SDS011;21086;44.780;17.194;2022-10-14T02:02:34;41.88;;;32.85;;
34876;SDS011;21086;44.780;17.194;2022-10-14T02:05:04;44.53;;;35.78;;
34876;SDS011;21086;44.780;17.194;2022-10-14T02:07:41;38.03;;;32.75;;
34876;SDS011;21086;44.780;17.194;2022-10-14T02:10:37;41.65;;;32.70;;
34876;SDS011;21086;44.780;17.194;2022-10-14T02:13:16;32.35;;;27.05;;
34876;SDS011;21086;44.780;17.194;2022-10-14T02:21:39;48.40;;;33.08;;
34876;SDS011;21086;44.780;17.194;2022-10-14T02:24:19;41.05;;;34.67;;
34876;SDS011;21086;44.780;17.194;2022-10-14T02:26:52;40.85;;;32.60;;
34876;SDS011;21086;44.780;17.194;2022-10-14T02:29:22;37.35;;;30.02;;
34876;SDS011;21086;44.780;17.194;2022-10-14T02:31:50;49.53;;;32.10;;
34876;SDS011;21086;44.780;17.194;2022-10-14T02:34:19;38.33;;;27.92;;
34876;SDS011;21086;44.780;17.194;2022-10-14T02:36:47;35.60;;;28.75;;
34876;SDS011;21086;44.780;17.194;2022-10-14T02:39:17;37.42;;;30.73;;
34876;SDS011;21086;44.780;17.194;2022-10-14T02:41:55;36.22;;;29.30;;
34876;SDS011;21086;44.780;17.194;2022-10-14T02:44:22;39.40;;;31.63;;
34876;SDS011;21086;44.780;17.194;2022-10-14T02:46:49;38.95;;;31.17;;
34876;SDS011;21086;44.780;17.194;2022-10-14T02:49:16;36.95;;;31.23;;
34876;SDS011;21086;44.780;17.194;2022-10-14T02:51:43;35.25;;;29.88;;
34876;SDS011;21086;44.780;17.194;2022-10-14T02:54:10;36.95;;;27.73;;
34876;SDS011;21086;44.780;17.194;2022-10-14T02:56:37;40.25;;;30.65;;
34876;SDS011;21086;44.780;17.194;2022-10-14T02:59:04;36.90;;;29.27;;
34876;SDS011;21086;44.780;17.194;2022-10-14T03:01:31;36.42;;;29.13;;
34876;SDS011;21086;44.780;17.194;2022-10-14T03:04:02;34.33;;;27.65;;
34876;SDS011;21086;44.780;17.194;2022-10-14T03:06:29;40.38;;;31.48;;
34876;SDS011;21086;44.780;17.194;2022-10-14T03:08:56;34.28;;;28.92;;
34876;SDS011;21086;44.780;17.194;2022-10-14T03:11:23;38.10;;;30.88;;
34876;SDS011;21086;44.780;17.194;2022-10-14T03:13:50;36.35;;;28.67;;
34876;SDS011;21086;44.780;17.194;2022-10-14T03:16:17;32.80;;;27.08;;
34876;SDS011;21086;44.780;17.194;2022-10-14T03:18:44;32.65;;;28.02;;
34876;SDS011;21086;44.780;17.194;2022-10-14T03:21:11;36.80;;;28.95;;
34876;SDS011;21086;44.780;17.194;2022-10-14T03:23:38;37.47;;;29.63;;
34876;SDS011;21086;44.780;17.194;2022-10-14T03:26:05;32.88;;;27.58;;
34876;SDS011;21086;44.780;17.194;2022-10-14T03:28:38;33.17;;;28.00;;
34876;SDS011;21086;44.780;17.194;2022-10-14T03:31:05;33.15;;;29.00;;
34876;SDS011;21086;44.780;17.194;2022-10-14T03:33:33;45.92;;;31.27;;
34876;SDS011;21086;44.780;17.194;2022-10-14T03:35:59;32.67;;;25.75;;
34876;SDS011;21086;44.780;17.194;2022-10-14T03:38:26;33.75;;;27.52;;
34876;SDS011;21086;44.780;17.194;2022-10-14T03:40:53;39.95;;;29.65;;
34876;SDS011;21086;44.780;17.194;2022-10-14T03:43:20;32.80;;;27.80;;
34876;SDS011;21086;44.780;17.194;2022-10-14T03:45:47;32.25;;;25.75;;
34876;SDS011;21086;44.780;17.194;2022-10-14T03:48:14;30.00;;;25.80;;
34876;SDS011;21086;44.780;17.194;2022-10-14T03:50:41;38.30;;;29.45;;
34876;SDS011;21086;44.780;17.194;2022-10-14T03:53:08;35.65;;;30.77;;
34876;SDS011;21086;44.780;17.194;2022-10-14T03:55:35;38.92;;;30.88;;
34876;SDS011;21086;44.780;17.194;2022-10-14T03:58:02;33.28;;;26.67;;
34876;SDS011;21086;44.780;17.194;2022-10-14T04:00:29;41.35;;;30.90;;
34876;SDS011;21086;44.780;17.194;2022-10-14T04:02:56;40.22;;;30.20;;
34876;SDS011;21086;44.780;17.194;2022-10-14T04:05:23;39.15;;;30.88;;
34876;SDS011;21086;44.780;17.194;2022-10-14T04:07:50;35.53;;;28.38;;
34876;SDS011;21086;44.780;17.194;2022-10-14T04:10:17;37.90;;;31.38;;
34876;SDS011;21086;44.780;17.194;2022-10-14T04:12:44;32.90;;;28.48;;
34876;SDS011;21086;44.780;17.194;2022-10-14T04:15:10;29.50;;;26.05;;
34876;SDS011;21086;44.780;17.194;2022-10-14T04:17:37;33.38;;;27.58;;
34876;SDS011;21086;44.780;17.194;2022-10-14T04:20:05;30.23;;;26.02;;
34876;SDS011;21086;44.780;17.194;2022-10-14T04:22:32;33.75;;;28.15;;
34876;SDS011;21086;44.780;17.194;2022-10-14T04:24:59;32.28;;;27.92;;
34876;SDS011;21086;44.780;17.194;2022-10-14T04:27:26;34.10;;;28.48;;
34876;SDS011;21086;44.780;17.194;2022-10-14T04:29:53;33.70;;;28.98;;
34876;SDS011;21086;44.780;17.194;2022-10-14T04:32:20;34.03;;;28.23;;
34876;SDS011;21086;44.780;17.194;2022-10-14T04:34:48;35.85;;;29.58;;
34876;SDS011;21086;44.780;17.194;2022-10-14T04:37:15;37.22;;;30.02;;
34876;SDS011;21086;44.780;17.194;2022-10-14T04:39:42;35.20;;;30.27;;
34876;SDS011;21086;44.780;17.194;2022-10-14T04:42:09;36.38;;;30.00;;
34876;SDS011;21086;44.780;17.194;2022-10-14T04:44:36;35.28;;;28.40;;
34876;SDS011;21086;44.780;17.194;2022-10-14T04:47:03;40.97;;;32.80;;
34876;SDS011;21086;44.780;17.194;2022-10-14T04:49:30;31.67;;;27.65;;
34876;SDS011;21086;44.780;17.194;2022-10-14T04:51:57;35.78;;;30.60;;
34876;SDS011;21086;44.780;17.194;2022-10-14T04:54:25;34.05;;;28.70;;
34876;SDS011;21086;44.780;17.194;2022-10-14T04:56:57;35.75;;;28.92;;
34876;SDS011;21086;44.780;17.194;2022-10-14T04:59:24;31.35;;;25.08;;
34876;SDS011;21086;44.780;17.194;2022-10-14T05:01:51;29.77;;;24.13;;
34876;SDS011;21086;44.780;17.194;2022-10-14T05:04:19;33.55;;;27.80;;
34876;SDS011;21086;44.780;17.194;2022-10-14T05:06:46;35.38;;;31.38;;
34876;SDS011;21086;44.780;17.194;2022-10-14T05:09:13;36.45;;;28.25;;
34876;SDS011;21086;44.780;17.194;2022-10-14T05:11:39;30.92;;;26.38;;
34876;SDS011;21086;44.780;17.194;2022-10-14T05:14:06;27.17;;;23.30;;
34876;SDS011;21086;44.780;17.194;2022-10-14T05:16:33;27.73;;;23.38;;
34876;SDS011;21086;44.780;17.194;2022-10-14T05:19:00;30.38;;;24.52;;
34876;SDS011;21086;44.780;17.194;2022-10-14T05:21:27;30.40;;;24.70;;
34876;SDS011;21086;44.780;17.194;2022-10-14T05:23:54;26.42;;;22.85;;
34876;SDS011;21086;44.780;17.194;2022-10-14T05:26:20;30.83;;;26.80;;
34876;SDS011;21086;44.780;17.194;2022-10-14T05:28:50;34.35;;;28.38;;
34876;SDS011;21086;44.780;17.194;2022-10-14T05:31:17;32.40;;;25.13;;
34876;SDS011;21086;44.780;17.194;2022-10-14T05:33:44;34.15;;;26.58;;
34876;SDS011;21086;44.780;17.194;2022-10-14T05:36:11;37.70;;;27.42;;
34876;SDS011;21086;44.780;17.194;2022-10-14T05:38:38;32.47;;;24.60;;
34876;SDS011;21086;44.780;17.194;2022-10-14T05:41:05;31.65;;;25.80;;
34876;SDS011;21086;44.780;17.194;2022-10-14T05:43:32;33.65;;;28.98;;
34876;SDS011;21086;44.780;17.194;2022-10-14T05:45:59;30.50;;;25.80;;
34876;SDS011;21086;44.780;17.194;2022-10-14T05:48:26;37.80;;;31.40;;
34876;SDS011;21086;44.780;17.194;2022-10-14T05:50:53;40.97;;;32.42;;
34876;SDS011;21086;44.780;17.194;2022-10-14T05:53:20;30.27;;;26.30;;
34876;SDS011;21086;44.780;17.194;2022-10-14T05:55:47;29.15;;;24.40;;
34876;SDS011;21086;44.780;17.194;2022-10-14T05:58:14;38.80;;;30.70;;
34876;SDS011;21086;44.780;17.194;2022-10-14T06:00:41;36.53;;;25.23;;
34876;SDS011;21086;44.780;17.194;2022-10-14T06:03:09;34.17;;;27.70;;
34876;SDS011;21086;44.780;17.194;2022-10-14T06:05:38;34.75;;;27.40;;
34876;SDS011;21086;44.780;17.194;2022-10-14T06:08:05;35.42;;;29.15;;
34876;SDS011;21086;44.780;17.194;2022-10-14T06:10:33;30.48;;;25.60;;
34876;SDS011;21086;44.780;17.194;2022-10-14T06:13:00;28.67;;;25.52;;
34876;SDS011;21086;44.780;17.194;2022-10-14T06:15:27;28.85;;;25.52;;
34876;SDS011;21086;44.780;17.194;2022-10-14T06:17:54;33.45;;;26.13;;
34876;SDS011;21086;44.780;17.194;2022-10-14T06:20:21;31.00;;;25.77;;
34876;SDS011;21086;44.780;17.194;2022-10-14T06:22:48;33.50;;;27.58;;
34876;SDS011;21086;44.780;17.194;2022-10-14T06:25:15;31.75;;;27.25;;
34876;SDS011;21086;44.780;17.194;2022-10-14T06:27:42;33.95;;;28.65;;
34876;SDS011;21086;44.780;17.194;2022-10-14T06:30:09;41.20;;;29.95;;
34876;SDS011;21086;44.780;17.194;2022-10-14T06:32:37;37.50;;;30.75;;
34876;SDS011;21086;44.780;17.194;2022-10-14T06:35:05;34.92;;;28.95;;
34876;SDS011;21086;44.780;17.194;2022-10-14T06:37:32;36.47;;;27.70;;
34876;SDS011;21086;44.780;17.194;2022-10-14T06:39:59;36.78;;;29.00;;
34876;SDS011;21086;44.780;17.194;2022-10-14T06:42:26;36.90;;;29.25;;
34876;SDS011;21086;44.780;17.194;2022-10-14T06:44:53;35.53;;;25.88;;
34876;SDS011;21086;44.780;17.194;2022-10-14T06:47:20;33.92;;;28.05;;
34876;SDS011;21086;44.780;17.194;2022-10-14T06:49:47;34.88;;;27.55;;
34876;SDS011;21086;44.780;17.194;2022-10-14T06:52:13;32.17;;;24.73;;
34876;SDS011;21086;44.780;17.194;2022-10-14T06:54:40;34.22;;;26.20;;
34876;SDS011;21086;44.780;17.194;2022-10-14T06:57:13;35.97;;;25.00;;
34876;SDS011;21086;44.780;17.194;2022-10-14T06:59:40;32.70;;;24.65;;
34876;SDS011;21086;44.780;17.194;2022-10-14T07:02:07;29.05;;;25.20;;
34876;SDS011;21086;44.780;17.194;2022-10-14T07:04:35;31.67;;;23.85;;
34876;SDS011;21086;44.780;17.194;2022-10-14T07:07:02;33.88;;;25.23;;
34876;SDS011;21086;44.780;17.194;2022-10-14T07:09:29;31.17;;;26.50;;
34876;SDS011;21086;44.780;17.194;2022-10-14T07:11:56;32.28;;;25.17;;
34876;SDS011;21086;44.780;17.194;2022-10-14T07:14:24;33.22;;;26.75;;
34876;SDS011;21086;44.780;17.194;2022-10-14T07:16:50;31.33;;;25.40;;
34876;SDS011;21086;44.780;17.194;2022-10-14T07:19:18;30.52;;;24.70;;
34876;SDS011;21086;44.780;17.194;2022-10-14T07:21:45;30.05;;;25.23;;
34876;SDS011;21086;44.780;17.194;2022-10-14T07:24:12;27.42;;;24.52;;
34876;SDS011;21086;44.780;17.194;2022-10-14T07:26:39;32.70;;;26.58;;
34876;SDS011;21086;44.780;17.194;2022-10-14T07:29:06;31.75;;;26.33;;
34876;SDS011;21086;44.780;17.194;2022-10-14T07:31:33;30.13;;;25.00;;
34876;SDS011;21086;44.780;17.194;2022-10-14T07:34:01;33.33;;;27.17;;
34876;SDS011;21086;44.780;17.194;2022-10-14T07:36:28;43.08;;;27.55;;
34876;SDS011;21086;44.780;17.194;2022-10-14T07:38:55;32.03;;;26.13;;
34876;SDS011;21086;44.780;17.194;2022-10-14T07:41:22;30.52;;;25.67;;
34876;SDS011;21086;44.780;17.194;2022-10-14T07:43:59;31.85;;;27.20;;
34876;SDS011;21086;44.780;17.194;2022-10-14T07:46:31;27.35;;;24.38;;
34876;SDS011;21086;44.780;17.194;2022-10-14T07:51:38;27.23;;;22.15;;
34876;SDS011;21086;44.780;17.194;2022-10-14T07:54:07;32.20;;;24.67;;
34876;SDS011;21086;44.780;17.194;2022-10-14T07:56:38;29.90;;;23.75;;
34876;SDS011;21086;44.780;17.194;2022-10-14T07:59:06;27.58;;;23.23;;
34876;SDS011;21086;44.780;17.194;2022-10-14T08:01:33;35.15;;;24.33;;
34876;SDS011;21086;44.780;17.194;2022-10-14T08:04:00;28.60;;;24.05;;
34876;SDS011;21086;44.780;17.194;2022-10-14T08:06:27;29.25;;;23.33;;
34876;SDS011;21086;44.780;17.194;2022-10-14T08:08:54;28.98;;;23.20;;
34876;SDS011;21086;44.780;17.194;2022-10-14T08:11:22;36.90;;;24.70;;
34876;SDS011;21086;44.780;17.194;2022-10-14T08:13:51;29.23;;;21.70;;
34876;SDS011;21086;44.780;17.194;2022-10-14T08:18:48;29.05;;;23.65;;
34876;SDS011;21086;44.780;17.194;2022-10-14T08:21:16;26.63;;;22.00;;
34876;SDS011;21086;44.780;17.194;2022-10-14T08:23:44;28.63;;;23.67;;
34876;SDS011;21086;44.780;17.194;2022-10-14T08:28:47;27.45;;;23.88;;
34876;SDS011;21086;44.780;17.194;2022-10-14T08:31:14;25.65;;;21.60;;
34876;SDS011;21086;44.780;17.194;2022-10-14T08:33:42;29.38;;;24.00;;
34876;SDS011;21086;44.780;17.194;2022-10-14T08:36:09;29.13;;;23.08;;
34876;SDS011;21086;44.780;17.194;2022-10-14T08:38:36;31.13;;;23.38;;
34876;SDS011;21086;44.780;17.194;2022-10-14T08:41:06;26.05;;;21.92;;
34876;SDS011;21086;44.780;17.194;2022-10-14T08:43:57;25.92;;;23.05;;
34876;SDS011;21086;44.780;17.194;2022-10-14T08:46:46;28.40;;;22.60;;
34876;SDS011;21086;44.780;17.194;2022-10-14T08:52:15;29.20;;;23.58;;
34876;SDS011;21086;44.780;17.194;2022-10-14T08:54:44;27.35;;;23.33;;
34876;SDS011;21086;44.780;17.194;2022-10-14T08:57:19;30.15;;;23.98;;
34876;SDS011;21086;44.780;17.194;2022-10-14T08:59:58;26.55;;;21.83;;
34876;SDS011;21086;44.780;17.194;2022-10-14T09:05:04;34.83;;;24.13;;
34876;SDS011;21086;44.780;17.194;2022-10-14T09:07:32;30.33;;;22.30;;
34876;SDS011;21086;44.780;17.194;2022-10-14T09:10:04;26.30;;;22.08;;
34876;SDS011;21086;44.780;17.194;2022-10-14T09:12:33;31.30;;;23.98;;
34876;SDS011;21086;44.780;17.194;2022-10-14T09:15:04;26.90;;;21.67;;
34876;SDS011;21086;44.780;17.194;2022-10-14T09:17:36;29.33;;;23.55;;
34876;SDS011;21086;44.780;17.194;2022-10-14T09:23:24;28.42;;;22.90;;
34876;SDS011;21086;44.780;17.194;2022-10-14T09:28:42;24.73;;;21.50;;
34876;SDS011;21086;44.780;17.194;2022-10-14T09:31:15;29.98;;;23.85;;
34876;SDS011;21086;44.780;17.194;2022-10-14T09:33:42;27.85;;;22.92;;
34876;SDS011;21086;44.780;17.194;2022-10-14T09:36:17;28.70;;;23.67;;
34876;SDS011;21086;44.780;17.194;2022-10-14T09:38:46;26.40;;;22.23;;
34876;SDS011;21086;44.780;17.194;2022-10-14T09:41:18;27.90;;;24.33;;
34876;SDS011;21086;44.780;17.194;2022-10-14T09:46:56;27.85;;;22.80;;
34876;SDS011;21086;44.780;17.194;2022-10-14T09:52:22;28.10;;;24.60;;
34876;SDS011;21086;44.780;17.194;2022-10-14T09:54:54;27.73;;;23.13;;
34876;SDS011;21086;44.780;17.194;2022-10-14T09:57:24;28.20;;;25.05;;
34876;SDS011;21086;44.780;17.194;2022-10-14T09:59:54;26.77;;;23.83;;
34876;SDS011;21086;44.780;17.194;2022-10-14T10:02:25;29.65;;;23.85;;
34876;SDS011;21086;44.780;17.194;2022-10-14T10:05:10;30.08;;;24.23;;
34876;SDS011;21086;44.780;17.194;2022-10-14T10:13:36;30.92;;;25.23;;
34876;SDS011;21086;44.780;17.194;2022-10-14T10:16:07;31.33;;;25.27;;
34876;SDS011;21086;44.780;17.194;2022-10-14T10:18:47;37.38;;;24.40;;
34876;SDS011;21086;44.780;17.194;2022-10-14T10:21:17;27.42;;;24.25;;
34876;SDS011;21086;44.780;17.194;2022-10-14T10:26:30;27.42;;;24.42;;
34876;SDS011;21086;44.780;17.194;2022-10-14T10:29:00;27.17;;;22.60;;
34876;SDS011;21086;44.780;17.194;2022-10-14T10:36:34;25.33;;;21.83;;
34876;SDS011;21086;44.780;17.194;2022-10-14T10:39:13;26.13;;;22.92;;
34876;SDS011;21086;44.780;17.194;2022-10-14T10:45:01;23.30;;;20.90;;
34876;SDS011;21086;44.780;17.194;2022-10-14T10:53:28;24.98;;;21.40;;
34876;SDS011;21086;44.780;17.194;2022-10-14T10:56:11;25.20;;;21.13;;
34876;SDS011;21086;44.780;17.194;2022-10-14T11:15:58;21.90;;;17.25;;
34876;SDS011;21086;44.780;17.194;2022-10-14T11:18:48;19.27;;;17.30;;
34876;SDS011;21086;44.780;17.194;2022-10-14T11:22:26;19.75;;;17.65;;
34876;SDS011;21086;44.780;17.194;2022-10-14T11:27:13;22.73;;;17.33;;
34876;SDS011;21086;44.780;17.194;2022-10-14T11:44:22;13.35;;;11.95;;
34876;SDS011;21086;44.780;17.194;2022-10-14T11:47:06;13.70;;;12.50;;
34876;SDS011;21086;44.780;17.194;2022-10-14T11:52:25;13.50;;;12.13;;
34876;SDS011;21086;44.780;17.194;2022-10-14T11:55:13;14.07;;;12.65;;
34876;SDS011;21086;44.780;17.194;2022-10-14T11:57:45;12.77;;;11.55;;
34876;SDS011;21086;44.780;17.194;2022-10-14T12:00:18;12.70;;;11.40;;
34876;SDS011;21086;44.780;17.194;2022-10-14T12:03:22;13.20;;;11.38;;
34876;SDS011;21086;44.780;17.194;2022-10-14T12:06:18;12.75;;;11.07;;
34876;SDS011;21086;44.780;17.194;2022-10-14T12:11:38;14.45;;;12.20;;
34876;SDS011;21086;44.780;17.194;2022-10-14T12:14:19;18.73;;;13.45;;
34876;SDS011;21086;44.780;17.194;2022-10-14T12:19:56;13.60;;;12.23;;
34876;SDS011;21086;44.780;17.194;2022-10-14T12:22:28;14.07;;;11.20;;
34876;SDS011;21086;44.780;17.194;2022-10-14T12:25:00;13.70;;;11.57;;
34876;SDS011;21086;44.780;17.194;2022-10-14T12:27:32;12.13;;;11.10;;
34876;SDS011;21086;44.780;17.194;2022-10-14T12:30:19;11.80;;;10.80;;
34876;SDS011;21086;44.780;17.194;2022-10-14T12:33:09;13.10;;;11.80;;
34876;SDS011;21086;44.780;17.194;2022-10-14T12:35:44;11.38;;;10.18;;
34876;SDS011;21086;44.780;17.194;2022-10-14T12:38:17;13.98;;;11.65;;
34876;SDS011;21086;44.780;17.194;2022-10-14T12:40:45;12.20;;;11.00;;
34876;SDS011;21086;44.780;17.194;2022-10-14T12:43:25;13.15;;;11.75;;
34876;SDS011;21086;44.780;17.194;2022-10-14T12:46:02;12.63;;;11.43;;
34876;SDS011;21086;44.780;17.194;2022-10-14T12:48:38;12.43;;;11.32;;
34876;SDS011;21086;44.780;17.194;2022-10-14T12:51:16;12.82;;;11.63;;
34876;SDS011;21086;44.780;17.194;2022-10-14T12:53:55;14.15;;;12.70;;
34876;SDS011;21086;44.780;17.194;2022-10-14T12:59:00;13.48;;;12.27;;
34876;SDS011;21086;44.780;17.194;2022-10-14T13:01:28;21.33;;;12.20;;
34876;SDS011;21086;44.780;17.194;2022-10-14T13:04:05;12.95;;;11.52;;
34876;SDS011;21086;44.780;17.194;2022-10-14T13:07:12;14.50;;;11.73;;
34876;SDS011;21086;44.780;17.194;2022-10-14T13:09:59;13.45;;;11.18;;
34876;SDS011;21086;44.780;17.194;2022-10-14T13:16:04;10.20;;;9.20;;
34876;SDS011;21086;44.780;17.194;2022-10-14T13:21:09;10.98;;;9.95;;
34876;SDS011;21086;44.780;17.194;2022-10-14T13:23:51;14.18;;;9.55;;
34876;SDS011;21086;44.780;17.194;2022-10-14T13:32:05;13.02;;;9.90;;
34876;SDS011;21086;44.780;17.194;2022-10-14T13:37:52;10.75;;;9.40;;
34876;SDS011;21086;44.780;17.194;2022-10-14T13:40:28;10.82;;;9.80;;
34876;SDS011;21086;44.780;17.194;2022-10-14T13:45:43;10.70;;;9.18;;
34876;SDS011;21086;44.780;17.194;2022-10-14T13:48:28;10.30;;;8.77;;
34876;SDS011;21086;44.780;17.194;2022-10-14T13:54:17;10.43;;;9.07;;
34876;SDS011;21086;44.780;17.194;2022-10-14T13:56:56;13.13;;;9.02;;
34876;SDS011;21086;44.780;17.194;2022-10-14T13:59:47;9.40;;;7.43;;
34876;SDS011;21086;44.780;17.194;2022-10-14T14:02:35;10.65;;;7.80;;
34876;SDS011;21086;44.780;17.194;2022-10-14T14:05:04;8.85;;;7.47;;
34876;SDS011;21086;44.780;17.194;2022-10-14T14:07:34;9.73;;;7.60;;
34876;SDS011;21086;44.780;17.194;2022-10-14T14:10:23;8.88;;;7.63;;
34876;SDS011;21086;44.780;17.194;2022-10-14T14:12:50;9.32;;;6.97;;
34876;SDS011;21086;44.780;17.194;2022-10-14T14:15:24;11.13;;;7.63;;
34876;SDS011;21086;44.780;17.194;2022-10-14T14:17:54;8.77;;;6.57;;
34876;SDS011;21086;44.780;17.194;2022-10-14T14:20:21;9.20;;;6.93;;
34876;SDS011;21086;44.780;17.194;2022-10-14T14:22:50;11.15;;;7.18;;
34876;SDS011;21086;44.780;17.194;2022-10-14T14:28:00;11.50;;;7.20;;
34876;SDS011;21086;44.780;17.194;2022-10-14T14:30:31;8.93;;;6.40;;
34876;SDS011;21086;44.780;17.194;2022-10-14T14:33:01;11.43;;;7.15;;
34876;SDS011;21086;44.780;17.194;2022-10-14T14:35:31;8.68;;;6.35;;
34876;SDS011;21086;44.780;17.194;2022-10-14T14:37:59;9.55;;;6.20;;
34876;SDS011;21086;44.780;17.194;2022-10-14T14:40:29;10.10;;;6.65;;
34876;SDS011;21086;44.780;17.194;2022-10-14T14:43:02;7.57;;;6.57;;
34876;SDS011;21086;44.780;17.194;2022-10-14T14:45:32;9.65;;;7.28;;
34876;SDS011;21086;44.780;17.194;2022-10-14T14:48:05;8.55;;;7.65;;
34876;SDS011;21086;44.780;17.194;2022-10-14T14:50:37;8.13;;;7.38;;
34876;SDS011;21086;44.780;17.194;2022-10-14T14:53:21;10.32;;;8.18;;
34876;SDS011;21086;44.780;17.194;2022-10-14T14:58:23;9.80;;;7.57;;
34876;SDS011;21086;44.780;17.194;2022-10-14T15:00:52;10.40;;;7.93;;
34876;SDS011;21086;44.780;17.194;2022-10-14T15:03:23;11.52;;;7.95;;
34876;SDS011;21086;44.780;17.194;2022-10-14T15:05:59;10.35;;;8.43;;
34876;SDS011;21086;44.780;17.194;2022-10-14T15:08:39;10.05;;;8.30;;
34876;SDS011;21086;44.780;17.194;2022-10-14T15:11:06;10.35;;;8.02;;
34876;SDS011;21086;44.780;17.194;2022-10-14T15:16:05;10.52;;;8.25;;
34876;SDS011;21086;44.780;17.194;2022-10-14T15:18:33;13.90;;;9.38;;
34876;SDS011;21086;44.780;17.194;2022-10-14T15:21:12;9.52;;;8.32;;
34876;SDS011;21086;44.780;17.194;2022-10-14T15:29:04;11.27;;;9.32;;
34876;SDS011;21086;44.780;17.194;2022-10-14T15:31:42;12.20;;;10.18;;
34876;SDS011;21086;44.780;17.194;2022-10-14T15:34:24;14.30;;;11.68;;
34876;SDS011;21086;44.780;17.194;2022-10-14T15:36:52;11.02;;;9.93;;
34876;SDS011;21086;44.780;17.194;2022-10-14T15:39:19;12.82;;;9.73;;
34876;SDS011;21086;44.780;17.194;2022-10-14T15:41:47;13.23;;;10.38;;
34876;SDS011;21086;44.780;17.194;2022-10-14T15:44:14;12.73;;;11.10;;
34876;SDS011;21086;44.780;17.194;2022-10-14T15:46:41;18.75;;;11.55;;
34876;SDS011;21086;44.780;17.194;2022-10-14T15:49:37;15.20;;;11.68;;
34876;SDS011;21086;44.780;17.194;2022-10-14T15:52:11;17.67;;;12.38;;
34876;SDS011;21086;44.780;17.194;2022-10-14T15:54:39;16.98;;;13.18;;
34876;SDS011;21086;44.780;17.194;2022-10-14T15:57:07;20.25;;;13.43;;
34876;SDS011;21086;44.780;17.194;2022-10-14T15:59:39;17.13;;;12.98;;
34876;SDS011;21086;44.780;17.194;2022-10-14T16:02:14;18.75;;;15.50;;
34876;SDS011;21086;44.780;17.194;2022-10-14T16:04:51;22.98;;;15.52;;
34876;SDS011;21086;44.780;17.194;2022-10-14T16:07:39;21.48;;;18.02;;
34876;SDS011;21086;44.780;17.194;2022-10-14T16:10:07;21.55;;;15.05;;
34876;SDS011;21086;44.780;17.194;2022-10-14T16:12:36;16.95;;;13.75;;
34876;SDS011;21086;44.780;17.194;2022-10-14T16:15:11;20.95;;;15.30;;
34876;SDS011;21086;44.780;17.194;2022-10-14T16:17:44;17.30;;;14.60;;
34876;SDS011;21086;44.780;17.194;2022-10-14T16:20:15;23.17;;;18.02;;
34876;SDS011;21086;44.780;17.194;2022-10-14T16:22:42;20.60;;;16.88;;
34876;SDS011;21086;44.780;17.194;2022-10-14T16:25:17;18.65;;;16.08;;
34876;SDS011;21086;44.780;17.194;2022-10-14T16:28:05;16.95;;;14.63;;
34876;SDS011;21086;44.780;17.194;2022-10-14T16:30:36;23.05;;;18.38;;
34876;SDS011;21086;44.780;17.194;2022-10-14T16:33:06;41.63;;;28.27;;
34876;SDS011;21086;44.780;17.194;2022-10-14T16:35:34;25.77;;;19.98;;
34876;SDS011;21086;44.780;17.194;2022-10-14T16:38:01;21.98;;;15.50;;
34876;SDS011;21086;44.780;17.194;2022-10-14T16:40:28;20.35;;;15.65;;
34876;SDS011;21086;44.780;17.194;2022-10-14T16:43:02;20.20;;;15.80;;
34876;SDS011;21086;44.780;17.194;2022-10-14T16:45:29;32.38;;;22.45;;
34876;SDS011;21086;44.780;17.194;2022-10-14T16:47:56;34.05;;;27.15;;
34876;SDS011;21086;44.780;17.194;2022-10-14T16:50:22;24.40;;;20.85;;
34876;SDS011;21086;44.780;17.194;2022-10-14T16:52:50;30.13;;;22.20;;
34876;SDS011;21086;44.780;17.194;2022-10-14T16:55:36;29.60;;;24.75;;
34876;SDS011;21086;44.780;17.194;2022-10-14T16:58:04;29.45;;;25.23;;
34876;SDS011;21086;44.780;17.194;2022-10-14T17:00:31;27.50;;;22.38;;
34876;SDS011;21086;44.780;17.194;2022-10-14T17:02:58;26.77;;;21.35;;
34876;SDS011;21086;44.780;17.194;2022-10-14T17:05:27;27.73;;;22.35;;
34876;SDS011;21086;44.780;17.194;2022-10-14T17:07:54;26.95;;;21.73;;
34876;SDS011;21086;44.780;17.194;2022-10-14T17:10:21;34.42;;;22.55;;
34876;SDS011;21086;44.780;17.194;2022-10-14T17:12:48;27.77;;;22.25;;